sensor_id;sensor_type;location;lat;lon;timestamp;P1;durP1;ratioP1;P2;durP2;ratioP2
24901;SDS011;31328;51.402;0.016;2023-04-25T00:00:05;9.40;;;3.53;;
24901;SDS011;31328;51.402;0.016;2023-04-25T00:02:38;12.90;;;3.53;;
24901;SDS011;31328;51.402;0.016;2023-04-25T00:05:04;13.17;;;5.07;;
24901;SDS011;31328;51.402;0.016;2023-04-25T00:07:31;10.93;;;3.67;;
24901;SDS011;31328;51.402;0.016;2023-04-25T00:09:58;13.23;;;3.67;;
24901;SDS011;31328;51.402;0.016;2023-04-25T00:12:24;11.17;;;3.70;;
24901;SDS011;31328;51.402;0.016;2023-04-25T00:14:51;9.73;;;3.50;;
24901;SDS011;31328;51.402;0.016;2023-04-25T00:17:18;9.07;;;3.47;;
24901;SDS011;31328;51.402;0.016;2023-04-25T00:19:44;10.00;;;3.67;;
24901;SDS011;31328;51.402;0.016;2023-04-25T00:22:12;13.43;;;4.47;;
24901;SDS011;31328;51.402;0.016;2023-04-25T00:24:39;11.87;;;3.00;;
24901;SDS011;31328;51.402;0.016;2023-04-25T00:27:05;11.73;;;3.53;;
24901;SDS011;31328;51.402;0.016;2023-04-25T00:29:31;10.97;;;3.30;;
24901;SDS011;31328;51.402;0.016;2023-04-25T00:31:58;8.40;;;2.63;;
24901;SDS011;31328;51.402;0.016;2023-04-25T00:34:24;8.30;;;2.70;;
24901;SDS011;31328;51.402;0.016;2023-04-25T00:36:50;9.20;;;2.63;;
24901;SDS011;31328;51.402;0.016;2023-04-25T00:39:17;7.30;;;2.33;;
24901;SDS011;31328;51.402;0.016;2023-04-25T00:41:43;14.77;;;3.13;;
24901;SDS011;31328;51.402;0.016;2023-04-25T00:44:11;15.10;;;3.67;;
24901;SDS011;31328;51.402;0.016;2023-04-25T00:46:38;8.53;;;3.23;;
24901;SDS011;31328;51.402;0.016;2023-04-25T00:49:05;9.27;;;2.57;;
24901;SDS011;31328;51.402;0.016;2023-04-25T00:51:32;8.50;;;4.07;;
24901;SDS011;31328;51.402;0.016;2023-04-25T00:53:59;8.73;;;3.13;;
24901;SDS011;31328;51.402;0.016;2023-04-25T00:56:25;6.80;;;2.60;;
24901;SDS011;31328;51.402;0.016;2023-04-25T00:58:53;13.47;;;2.90;;
24901;SDS011;31328;51.402;0.016;2023-04-25T01:01:22;10.77;;;3.40;;
24901;SDS011;31328;51.402;0.016;2023-04-25T01:03:49;7.93;;;2.10;;
24901;SDS011;31328;51.402;0.016;2023-04-25T01:06:16;10.43;;;2.50;;
24901;SDS011;31328;51.402;0.016;2023-04-25T01:08:42;10.03;;;4.03;;
24901;SDS011;31328;51.402;0.016;2023-04-25T01:11:09;11.30;;;3.03;;
24901;SDS011;31328;51.402;0.016;2023-04-25T01:13:35;11.73;;;3.20;;
24901;SDS011;31328;51.402;0.016;2023-04-25T01:16:02;11.37;;;3.50;;
24901;SDS011;31328;51.402;0.016;2023-04-25T01:18:28;9.83;;;2.37;;
24901;SDS011;31328;51.402;0.016;2023-04-25T01:20:55;17.43;;;3.13;;
24901;SDS011;31328;51.402;0.016;2023-04-25T01:23:22;9.97;;;2.50;;
24901;SDS011;31328;51.402;0.016;2023-04-25T01:25:50;13.00;;;2.90;;
24901;SDS011;31328;51.402;0.016;2023-04-25T01:28:17;10.27;;;3.03;;
24901;SDS011;31328;51.402;0.016;2023-04-25T01:30:44;8.57;;;2.97;;
24901;SDS011;31328;51.402;0.016;2023-04-25T01:33:11;11.07;;;2.53;;
24901;SDS011;31328;51.402;0.016;2023-04-25T01:35:39;7.33;;;2.50;;
24901;SDS011;31328;51.402;0.016;2023-04-25T01:38:06;8.53;;;2.43;;
24901;SDS011;31328;51.402;0.016;2023-04-25T01:40:32;10.20;;;2.60;;
24901;SDS011;31328;51.402;0.016;2023-04-25T01:42:59;8.60;;;2.20;;
24901;SDS011;31328;51.402;0.016;2023-04-25T01:45:26;9.87;;;2.83;;
24901;SDS011;31328;51.402;0.016;2023-04-25T01:47:53;12.77;;;3.87;;
24901;SDS011;31328;51.402;0.016;2023-04-25T01:50:19;10.83;;;3.00;;
24901;SDS011;31328;51.402;0.016;2023-04-25T01:52:47;6.33;;;1.90;;
24901;SDS011;31328;51.402;0.016;2023-04-25T01:55:14;7.13;;;3.00;;
24901;SDS011;31328;51.402;0.016;2023-04-25T01:57:49;8.70;;;2.83;;
24901;SDS011;31328;51.402;0.016;2023-04-25T02:00:18;7.53;;;2.43;;
24901;SDS011;31328;51.402;0.016;2023-04-25T02:02:44;11.87;;;3.77;;
24901;SDS011;31328;51.402;0.016;2023-04-25T02:05:20;6.03;;;1.97;;
24901;SDS011;31328;51.402;0.016;2023-04-25T02:07:46;8.03;;;2.40;;
24901;SDS011;31328;51.402;0.016;2023-04-25T02:10:13;6.80;;;2.33;;
24901;SDS011;31328;51.402;0.016;2023-04-25T02:12:55;11.37;;;3.10;;
24901;SDS011;31328;51.402;0.016;2023-04-25T02:15:43;10.77;;;2.70;;
24901;SDS011;31328;51.402;0.016;2023-04-25T02:18:14;7.80;;;2.33;;
24901;SDS011;31328;51.402;0.016;2023-04-25T02:20:42;16.40;;;3.23;;
24901;SDS011;31328;51.402;0.016;2023-04-25T02:23:09;11.27;;;2.53;;
24901;SDS011;31328;51.402;0.016;2023-04-25T02:25:36;9.60;;;2.40;;
24901;SDS011;31328;51.402;0.016;2023-04-25T02:28:02;11.50;;;2.40;;
24901;SDS011;31328;51.402;0.016;2023-04-25T02:30:29;6.63;;;2.40;;
24901;SDS011;31328;51.402;0.016;2023-04-25T02:32:56;8.30;;;3.47;;
24901;SDS011;31328;51.402;0.016;2023-04-25T02:35:22;5.80;;;2.40;;
24901;SDS011;31328;51.402;0.016;2023-04-25T02:37:48;10.67;;;2.70;;
24901;SDS011;31328;51.402;0.016;2023-04-25T02:40:14;6.87;;;2.27;;
24901;SDS011;31328;51.402;0.016;2023-04-25T02:42:41;10.87;;;3.37;;
24901;SDS011;31328;51.402;0.016;2023-04-25T02:45:07;15.00;;;3.13;;
24901;SDS011;31328;51.402;0.016;2023-04-25T02:47:34;8.00;;;2.70;;
24901;SDS011;31328;51.402;0.016;2023-04-25T02:50:00;8.70;;;2.47;;
24901;SDS011;31328;51.402;0.016;2023-04-25T02:52:27;9.97;;;2.70;;
24901;SDS011;31328;51.402;0.016;2023-04-25T02:55:02;6.47;;;2.30;;
24901;SDS011;31328;51.402;0.016;2023-04-25T02:57:29;11.47;;;3.10;;
24901;SDS011;31328;51.402;0.016;2023-04-25T02:59:56;4.67;;;2.20;;
24901;SDS011;31328;51.402;0.016;2023-04-25T03:02:22;12.90;;;3.80;;
24901;SDS011;31328;51.402;0.016;2023-04-25T03:04:48;11.50;;;3.00;;
24901;SDS011;31328;51.402;0.016;2023-04-25T03:07:15;9.53;;;2.83;;
24901;SDS011;31328;51.402;0.016;2023-04-25T03:09:41;9.07;;;2.50;;
24901;SDS011;31328;51.402;0.016;2023-04-25T03:12:08;9.87;;;3.10;;
24901;SDS011;31328;51.402;0.016;2023-04-25T03:14:34;7.07;;;2.43;;
24901;SDS011;31328;51.402;0.016;2023-04-25T03:17:01;8.23;;;2.40;;
24901;SDS011;31328;51.402;0.016;2023-04-25T03:19:27;9.13;;;2.43;;
24901;SDS011;31328;51.402;0.016;2023-04-25T03:21:53;8.03;;;2.60;;
24901;SDS011;31328;51.402;0.016;2023-04-25T03:24:20;11.53;;;3.63;;
24901;SDS011;31328;51.402;0.016;2023-04-25T03:26:46;7.53;;;2.50;;
24901;SDS011;31328;51.402;0.016;2023-04-25T03:29:13;4.67;;;2.10;;
24901;SDS011;31328;51.402;0.016;2023-04-25T03:31:41;9.23;;;2.50;;
24901;SDS011;31328;51.402;0.016;2023-04-25T03:34:08;9.17;;;2.20;;
24901;SDS011;31328;51.402;0.016;2023-04-25T03:36:35;5.77;;;2.60;;
24901;SDS011;31328;51.402;0.016;2023-04-25T03:39:01;7.33;;;1.80;;
24901;SDS011;31328;51.402;0.016;2023-04-25T03:41:30;7.80;;;2.33;;
24901;SDS011;31328;51.402;0.016;2023-04-25T03:44:02;6.17;;;3.00;;
24901;SDS011;31328;51.402;0.016;2023-04-25T03:46:28;7.93;;;2.40;;
24901;SDS011;31328;51.402;0.016;2023-04-25T03:48:55;7.57;;;2.67;;
24901;SDS011;31328;51.402;0.016;2023-04-25T03:51:28;7.50;;;2.23;;
24901;SDS011;31328;51.402;0.016;2023-04-25T03:53:54;7.33;;;2.50;;
24901;SDS011;31328;51.402;0.016;2023-04-25T03:56:21;6.47;;;2.47;;
24901;SDS011;31328;51.402;0.016;2023-04-25T03:58:53;6.77;;;2.73;;
24901;SDS011;31328;51.402;0.016;2023-04-25T04:01:23;10.37;;;3.00;;
24901;SDS011;31328;51.402;0.016;2023-04-25T04:03:49;11.57;;;4.20;;
24901;SDS011;31328;51.402;0.016;2023-04-25T04:06:16;8.33;;;2.70;;
24901;SDS011;31328;51.402;0.016;2023-04-25T04:08:46;8.40;;;2.67;;
24901;SDS011;31328;51.402;0.016;2023-04-25T04:11:13;9.77;;;3.57;;
24901;SDS011;31328;51.402;0.016;2023-04-25T04:13:39;7.43;;;2.57;;
24901;SDS011;31328;51.402;0.016;2023-04-25T04:16:06;9.33;;;3.00;;
24901;SDS011;31328;51.402;0.016;2023-04-25T04:18:33;8.50;;;2.63;;
24901;SDS011;31328;51.402;0.016;2023-04-25T04:20:59;7.03;;;2.60;;
24901;SDS011;31328;51.402;0.016;2023-04-25T04:23:28;7.07;;;2.57;;
24901;SDS011;31328;51.402;0.016;2023-04-25T04:25:56;8.93;;;2.83;;
24901;SDS011;31328;51.402;0.016;2023-04-25T04:28:29;9.70;;;2.80;;
24901;SDS011;31328;51.402;0.016;2023-04-25T04:31:19;5.57;;;2.37;;
24901;SDS011;31328;51.402;0.016;2023-04-25T04:33:48;6.33;;;2.83;;
24901;SDS011;31328;51.402;0.016;2023-04-25T04:36:15;9.87;;;2.60;;
24901;SDS011;31328;51.402;0.016;2023-04-25T04:38:46;6.73;;;2.10;;
24901;SDS011;31328;51.402;0.016;2023-04-25T04:41:20;10.13;;;3.13;;
24901;SDS011;31328;51.402;0.016;2023-04-25T04:43:56;7.07;;;2.40;;
24901;SDS011;31328;51.402;0.016;2023-04-25T04:46:42;12.90;;;2.77;;
24901;SDS011;31328;51.402;0.016;2023-04-25T04:49:28;10.03;;;3.53;;
24901;SDS011;31328;51.402;0.016;2023-04-25T04:52:21;7.30;;;2.27;;
24901;SDS011;31328;51.402;0.016;2023-04-25T04:54:55;7.03;;;2.33;;
24901;SDS011;31328;51.402;0.016;2023-04-25T04:57:44;9.03;;;1.97;;
24901;SDS011;31328;51.402;0.016;2023-04-25T05:00:21;13.63;;;3.30;;
24901;SDS011;31328;51.402;0.016;2023-04-25T05:03:10;10.87;;;3.83;;
24901;SDS011;31328;51.402;0.016;2023-04-25T05:05:55;10.77;;;3.65;;
24901;SDS011;31328;51.402;0.016;2023-04-25T05:08:40;8.18;;;3.10;;
24901;SDS011;31328;51.402;0.016;2023-04-25T05:11:32;8.43;;;2.50;;
24901;SDS011;31328;51.402;0.016;2023-04-25T05:14:13;10.90;;;3.00;;
24901;SDS011;31328;51.402;0.016;2023-04-25T05:16:45;7.97;;;2.50;;
24901;SDS011;31328;51.402;0.016;2023-04-25T05:19:31;17.77;;;4.20;;
24901;SDS011;31328;51.402;0.016;2023-04-25T05:22:16;10.40;;;2.90;;
24901;SDS011;31328;51.402;0.016;2023-04-25T05:25:08;8.10;;;3.03;;
24901;SDS011;31328;51.402;0.016;2023-04-25T05:27:57;12.07;;;3.90;;
24901;SDS011;31328;51.402;0.016;2023-04-25T05:30:45;8.57;;;2.53;;
24901;SDS011;31328;51.402;0.016;2023-04-25T05:33:20;9.27;;;2.57;;
24901;SDS011;31328;51.402;0.016;2023-04-25T05:35:48;9.00;;;2.17;;
24901;SDS011;31328;51.402;0.016;2023-04-25T05:38:15;7.93;;;2.30;;
24901;SDS011;31328;51.402;0.016;2023-04-25T05:41:11;7.57;;;2.50;;
24901;SDS011;31328;51.402;0.016;2023-04-25T05:43:55;9.90;;;3.95;;
24901;SDS011;31328;51.402;0.016;2023-04-25T05:46:44;7.10;;;2.47;;
24901;SDS011;31328;51.402;0.016;2023-04-25T05:49:11;10.97;;;2.60;;
24901;SDS011;31328;51.402;0.016;2023-04-25T05:51:57;7.83;;;2.43;;
24901;SDS011;31328;51.402;0.016;2023-04-25T05:54:45;8.90;;;2.83;;
24901;SDS011;31328;51.402;0.016;2023-04-25T05:57:45;12.83;;;2.77;;
24901;SDS011;31328;51.402;0.016;2023-04-25T06:00:11;10.43;;;3.40;;
24901;SDS011;31328;51.402;0.016;2023-04-25T06:02:43;7.53;;;2.50;;
24901;SDS011;31328;51.402;0.016;2023-04-25T06:05:12;11.00;;;2.63;;
24901;SDS011;31328;51.402;0.016;2023-04-25T06:07:38;7.87;;;2.90;;
24901;SDS011;31328;51.402;0.016;2023-04-25T06:10:04;10.57;;;2.93;;
24901;SDS011;31328;51.402;0.016;2023-04-25T06:12:32;7.90;;;3.20;;
24901;SDS011;31328;51.402;0.016;2023-04-25T06:14:59;8.97;;;2.00;;
24901;SDS011;31328;51.402;0.016;2023-04-25T06:17:26;7.97;;;3.20;;
24901;SDS011;31328;51.402;0.016;2023-04-25T06:19:53;13.63;;;3.20;;
24901;SDS011;31328;51.402;0.016;2023-04-25T06:22:20;9.93;;;3.50;;
24901;SDS011;31328;51.402;0.016;2023-04-25T06:24:46;6.83;;;2.70;;
24901;SDS011;31328;51.402;0.016;2023-04-25T06:27:13;11.77;;;2.73;;
24901;SDS011;31328;51.402;0.016;2023-04-25T06:29:39;8.53;;;2.83;;
24901;SDS011;31328;51.402;0.016;2023-04-25T06:32:05;11.30;;;3.17;;
24901;SDS011;31328;51.402;0.016;2023-04-25T06:34:32;12.33;;;2.53;;
24901;SDS011;31328;51.402;0.016;2023-04-25T06:36:59;9.33;;;2.67;;
24901;SDS011;31328;51.402;0.016;2023-04-25T06:39:25;9.50;;;3.07;;
24901;SDS011;31328;51.402;0.016;2023-04-25T06:41:51;8.37;;;2.30;;
24901;SDS011;31328;51.402;0.016;2023-04-25T06:44:39;6.83;;;3.07;;
24901;SDS011;31328;51.402;0.016;2023-04-25T06:47:08;5.80;;;1.77;;
24901;SDS011;31328;51.402;0.016;2023-04-25T06:49:34;8.93;;;2.30;;
24901;SDS011;31328;51.402;0.016;2023-04-25T06:52:01;5.27;;;2.10;;
24901;SDS011;31328;51.402;0.016;2023-04-25T06:54:28;6.47;;;2.50;;
24901;SDS011;31328;51.402;0.016;2023-04-25T06:57:02;8.05;;;2.63;;
24901;SDS011;31328;51.402;0.016;2023-04-25T06:59:29;9.17;;;2.57;;
24901;SDS011;31328;51.402;0.016;2023-04-25T07:01:55;6.03;;;2.40;;
24901;SDS011;31328;51.402;0.016;2023-04-25T07:04:25;10.53;;;2.83;;
24901;SDS011;31328;51.402;0.016;2023-04-25T07:06:55;6.17;;;2.73;;
24901;SDS011;31328;51.402;0.016;2023-04-25T07:09:28;8.27;;;2.20;;
24901;SDS011;31328;51.402;0.016;2023-04-25T07:11:55;7.33;;;2.33;;
24901;SDS011;31328;51.402;0.016;2023-04-25T07:14:22;5.67;;;1.97;;
24901;SDS011;31328;51.402;0.016;2023-04-25T07:16:49;6.77;;;3.00;;
24901;SDS011;31328;51.402;0.016;2023-04-25T07:19:15;4.70;;;2.70;;
24901;SDS011;31328;51.402;0.016;2023-04-25T07:21:41;6.93;;;2.30;;
24901;SDS011;31328;51.402;0.016;2023-04-25T07:24:08;8.83;;;2.40;;
24901;SDS011;31328;51.402;0.016;2023-04-25T07:26:39;7.90;;;2.37;;
24901;SDS011;31328;51.402;0.016;2023-04-25T07:29:34;4.60;;;2.03;;
24901;SDS011;31328;51.402;0.016;2023-04-25T07:32:04;5.97;;;2.23;;
24901;SDS011;31328;51.402;0.016;2023-04-25T07:34:30;10.90;;;2.33;;
24901;SDS011;31328;51.402;0.016;2023-04-25T07:36:58;6.63;;;1.93;;
24901;SDS011;31328;51.402;0.016;2023-04-25T07:39:27;4.70;;;1.93;;
24901;SDS011;31328;51.402;0.016;2023-04-25T07:41:53;6.90;;;2.00;;
24901;SDS011;31328;51.402;0.016;2023-04-25T07:44:24;7.03;;;2.53;;
24901;SDS011;31328;51.402;0.016;2023-04-25T07:46:51;5.20;;;2.00;;
24901;SDS011;31328;51.402;0.016;2023-04-25T07:49:18;5.63;;;1.97;;
24901;SDS011;31328;51.402;0.016;2023-04-25T07:51:45;6.67;;;2.03;;
24901;SDS011;31328;51.402;0.016;2023-04-25T07:54:14;8.07;;;2.63;;
24901;SDS011;31328;51.402;0.016;2023-04-25T07:56:46;7.77;;;3.03;;
24901;SDS011;31328;51.402;0.016;2023-04-25T07:59:12;5.27;;;2.13;;
24901;SDS011;31328;51.402;0.016;2023-04-25T08:01:40;10.67;;;2.30;;
24901;SDS011;31328;51.402;0.016;2023-04-25T08:04:07;7.33;;;2.27;;
24901;SDS011;31328;51.402;0.016;2023-04-25T08:06:47;5.27;;;2.33;;
24901;SDS011;31328;51.402;0.016;2023-04-25T08:09:19;5.87;;;1.87;;
24901;SDS011;31328;51.402;0.016;2023-04-25T08:11:46;12.77;;;2.07;;
24901;SDS011;31328;51.402;0.016;2023-04-25T08:14:15;6.93;;;2.07;;
24901;SDS011;31328;51.402;0.016;2023-04-25T08:16:43;9.40;;;2.20;;
24901;SDS011;31328;51.402;0.016;2023-04-25T08:19:10;4.87;;;2.20;;
24901;SDS011;31328;51.402;0.016;2023-04-25T08:21:36;5.13;;;1.70;;
24901;SDS011;31328;51.402;0.016;2023-04-25T08:24:06;6.57;;;1.80;;
24901;SDS011;31328;51.402;0.016;2023-04-25T08:26:36;6.70;;;1.80;;
24901;SDS011;31328;51.402;0.016;2023-04-25T08:29:04;5.33;;;2.00;;
24901;SDS011;31328;51.402;0.016;2023-04-25T08:31:31;5.60;;;2.20;;
24901;SDS011;31328;51.402;0.016;2023-04-25T08:34:01;5.27;;;2.20;;
24901;SDS011;31328;51.402;0.016;2023-04-25T08:36:34;7.13;;;1.80;;
24901;SDS011;31328;51.402;0.016;2023-04-25T08:39:00;6.23;;;2.10;;
24901;SDS011;31328;51.402;0.016;2023-04-25T08:41:27;7.70;;;2.00;;
24901;SDS011;31328;51.402;0.016;2023-04-25T08:43:53;10.70;;;2.73;;
24901;SDS011;31328;51.402;0.016;2023-04-25T08:46:23;7.83;;;2.60;;
24901;SDS011;31328;51.402;0.016;2023-04-25T08:49:09;5.43;;;1.67;;
24901;SDS011;31328;51.402;0.016;2023-04-25T08:51:40;2.77;;;1.27;;
24901;SDS011;31328;51.402;0.016;2023-04-25T08:54:13;4.87;;;1.53;;
24901;SDS011;31328;51.402;0.016;2023-04-25T08:56:41;4.73;;;1.80;;
24901;SDS011;31328;51.402;0.016;2023-04-25T08:59:13;4.57;;;1.37;;
24901;SDS011;31328;51.402;0.016;2023-04-25T09:01:41;6.30;;;1.67;;
24901;SDS011;31328;51.402;0.016;2023-04-25T09:04:08;5.47;;;1.53;;
24901;SDS011;31328;51.402;0.016;2023-04-25T09:06:34;5.23;;;1.73;;
24901;SDS011;31328;51.402;0.016;2023-04-25T09:09:05;5.23;;;1.57;;
24901;SDS011;31328;51.402;0.016;2023-04-25T09:11:34;7.60;;;2.33;;
24901;SDS011;31328;51.402;0.016;2023-04-25T09:14:14;5.63;;;1.50;;
24901;SDS011;31328;51.402;0.016;2023-04-25T09:17:02;5.63;;;1.63;;
24901;SDS011;31328;51.402;0.016;2023-04-25T09:19:42;7.37;;;1.47;;
24901;SDS011;31328;51.402;0.016;2023-04-25T09:22:16;6.00;;;1.43;;
24901;SDS011;31328;51.402;0.016;2023-04-25T09:24:46;3.67;;;1.13;;
24901;SDS011;31328;51.402;0.016;2023-04-25T09:27:18;2.97;;;1.43;;
24901;SDS011;31328;51.402;0.016;2023-04-25T09:29:46;4.70;;;1.27;;
24901;SDS011;31328;51.402;0.016;2023-04-25T09:32:15;6.53;;;2.03;;
24901;SDS011;31328;51.402;0.016;2023-04-25T09:34:48;5.20;;;1.90;;
24901;SDS011;31328;51.402;0.016;2023-04-25T09:37:18;3.97;;;1.40;;
24901;SDS011;31328;51.402;0.016;2023-04-25T09:40:05;4.23;;;1.10;;
24901;SDS011;31328;51.402;0.016;2023-04-25T09:42:40;3.00;;;1.30;;
24901;SDS011;31328;51.402;0.016;2023-04-25T09:45:07;5.60;;;1.30;;
24901;SDS011;31328;51.402;0.016;2023-04-25T09:47:40;4.97;;;1.40;;
24901;SDS011;31328;51.402;0.016;2023-04-25T09:50:14;7.73;;;2.37;;
24901;SDS011;31328;51.402;0.016;2023-04-25T09:52:44;5.20;;;2.27;;
24901;SDS011;31328;51.402;0.016;2023-04-25T09:55:20;4.10;;;1.90;;
24901;SDS011;31328;51.402;0.016;2023-04-25T09:57:47;4.30;;;1.87;;
24901;SDS011;31328;51.402;0.016;2023-04-25T10:00:18;5.20;;;1.40;;
24901;SDS011;31328;51.402;0.016;2023-04-25T10:02:46;3.93;;;2.03;;
24901;SDS011;31328;51.402;0.016;2023-04-25T10:05:46;3.73;;;2.03;;
24901;SDS011;31328;51.402;0.016;2023-04-25T10:08:16;2.03;;;1.00;;
24901;SDS011;31328;51.402;0.016;2023-04-25T10:10:43;4.20;;;1.20;;
24901;SDS011;31328;51.402;0.016;2023-04-25T10:13:10;5.27;;;1.30;;
24901;SDS011;31328;51.402;0.016;2023-04-25T10:15:39;3.33;;;1.60;;
24901;SDS011;31328;51.402;0.016;2023-04-25T10:18:07;3.10;;;1.20;;
24901;SDS011;31328;51.402;0.016;2023-04-25T10:20:33;3.53;;;1.70;;
24901;SDS011;31328;51.402;0.016;2023-04-25T10:23:03;5.97;;;1.73;;
24901;SDS011;31328;51.402;0.016;2023-04-25T10:25:36;3.17;;;1.35;;
24901;SDS011;31328;51.402;0.016;2023-04-25T10:28:03;4.03;;;1.30;;
24901;SDS011;31328;51.402;0.016;2023-04-25T10:30:30;3.83;;;1.40;;
24901;SDS011;31328;51.402;0.016;2023-04-25T10:32:58;3.67;;;1.10;;
24901;SDS011;31328;51.402;0.016;2023-04-25T10:35:26;2.42;;;1.08;;
24901;SDS011;31328;51.402;0.016;2023-04-25T10:40:34;2.58;;;1.25;;
24901;SDS011;31328;51.402;0.016;2023-04-25T10:43:35;4.45;;;1.55;;
24901;SDS011;31328;51.402;0.016;2023-04-25T10:45:59;2.08;;;1.23;;
24901;SDS011;31328;51.402;0.016;2023-04-25T10:48:29;4.75;;;1.20;;
24901;SDS011;31328;51.402;0.016;2023-04-25T10:51:16;5.80;;;1.10;;
24901;SDS011;31328;51.402;0.016;2023-04-25T10:53:46;2.20;;;1.17;;
24901;SDS011;31328;51.402;0.016;2023-04-25T10:56:16;5.78;;;1.55;;
24901;SDS011;31328;51.402;0.016;2023-04-25T10:58:45;3.00;;;0.95;;
24901;SDS011;31328;51.402;0.016;2023-04-25T11:01:12;3.05;;;0.90;;
24901;SDS011;31328;51.402;0.016;2023-04-25T11:03:40;4.80;;;1.30;;
24901;SDS011;31328;51.402;0.016;2023-04-25T11:06:32;3.63;;;1.20;;
24901;SDS011;31328;51.402;0.016;2023-04-25T11:09:03;3.25;;;1.30;;
24901;SDS011;31328;51.402;0.016;2023-04-25T11:11:38;1.67;;;1.27;;
24901;SDS011;31328;51.402;0.016;2023-04-25T11:14:05;2.10;;;1.10;;
24901;SDS011;31328;51.402;0.016;2023-04-25T11:16:32;3.83;;;1.25;;
24901;SDS011;31328;51.402;0.016;2023-04-25T11:18:58;4.18;;;1.20;;
24901;SDS011;31328;51.402;0.016;2023-04-25T11:21:25;2.50;;;1.65;;
24901;SDS011;31328;51.402;0.016;2023-04-25T11:23:53;3.70;;;1.80;;
24901;SDS011;31328;51.402;0.016;2023-04-25T11:26:21;3.30;;;1.20;;
24901;SDS011;31328;51.402;0.016;2023-04-25T11:28:50;3.55;;;1.30;;
24901;SDS011;31328;51.402;0.016;2023-04-25T11:31:19;2.28;;;1.27;;
24901;SDS011;31328;51.402;0.016;2023-04-25T11:33:47;3.95;;;1.40;;
24901;SDS011;31328;51.402;0.016;2023-04-25T11:36:13;2.50;;;1.42;;
24901;SDS011;31328;51.402;0.016;2023-04-25T11:38:40;4.70;;;1.70;;
24901;SDS011;31328;51.402;0.016;2023-04-25T11:41:07;4.13;;;1.83;;
24901;SDS011;31328;51.402;0.016;2023-04-25T11:43:33;5.07;;;1.92;;
24901;SDS011;31328;51.402;0.016;2023-04-25T11:46:00;2.50;;;1.63;;
24901;SDS011;31328;51.402;0.016;2023-04-25T11:48:26;2.72;;;1.40;;
24901;SDS011;31328;51.402;0.016;2023-04-25T11:50:53;5.15;;;1.50;;
24901;SDS011;31328;51.402;0.016;2023-04-25T11:53:20;4.22;;;1.80;;
24901;SDS011;31328;51.402;0.016;2023-04-25T11:55:47;3.40;;;1.83;;
24901;SDS011;31328;51.402;0.016;2023-04-25T11:58:13;4.38;;;2.25;;
24901;SDS011;31328;51.402;0.016;2023-04-25T12:00:41;2.90;;;2.00;;
24901;SDS011;31328;51.402;0.016;2023-04-25T12:03:08;4.03;;;2.13;;
24901;SDS011;31328;51.402;0.016;2023-04-25T12:05:35;2.47;;;1.90;;
24901;SDS011;31328;51.402;0.016;2023-04-25T12:08:12;3.65;;;2.00;;
24901;SDS011;31328;51.402;0.016;2023-04-25T12:10:41;4.22;;;1.92;;
24901;SDS011;31328;51.402;0.016;2023-04-25T12:13:24;2.55;;;1.35;;
24901;SDS011;31328;51.402;0.016;2023-04-25T12:15:54;2.88;;;1.45;;
24901;SDS011;31328;51.402;0.016;2023-04-25T12:18:23;2.88;;;1.48;;
24901;SDS011;31328;51.402;0.016;2023-04-25T12:20:52;3.78;;;1.67;;
24901;SDS011;31328;51.402;0.016;2023-04-25T12:23:25;3.17;;;1.30;;
24901;SDS011;31328;51.402;0.016;2023-04-25T12:25:54;4.57;;;1.83;;
24901;SDS011;31328;51.402;0.016;2023-04-25T12:28:22;1.60;;;1.25;;
24901;SDS011;31328;51.402;0.016;2023-04-25T12:33:19;2.45;;;1.25;;
24901;SDS011;31328;51.402;0.016;2023-04-25T12:35:46;2.97;;;1.60;;
24901;SDS011;31328;51.402;0.016;2023-04-25T12:38:29;2.70;;;1.30;;
24901;SDS011;31328;51.402;0.016;2023-04-25T12:40:59;3.00;;;1.40;;
24901;SDS011;31328;51.402;0.016;2023-04-25T12:43:26;4.25;;;1.58;;
24901;SDS011;31328;51.402;0.016;2023-04-25T12:45:52;4.18;;;1.58;;
24901;SDS011;31328;51.402;0.016;2023-04-25T12:48:20;2.67;;;1.25;;
24901;SDS011;31328;51.402;0.016;2023-04-25T12:50:47;2.72;;;1.13;;
24901;SDS011;31328;51.402;0.016;2023-04-25T12:53:16;5.85;;;1.40;;
24901;SDS011;31328;51.402;0.016;2023-04-25T12:55:42;1.40;;;1.20;;
24901;SDS011;31328;51.402;0.016;2023-04-25T12:58:11;2.55;;;1.10;;
24901;SDS011;31328;51.402;0.016;2023-04-25T13:00:41;2.80;;;1.00;;
24901;SDS011;31328;51.402;0.016;2023-04-25T13:03:08;2.22;;;1.30;;
24901;SDS011;31328;51.402;0.016;2023-04-25T13:05:36;3.47;;;1.40;;
24901;SDS011;31328;51.402;0.016;2023-04-25T13:08:03;3.38;;;1.38;;
24901;SDS011;31328;51.402;0.016;2023-04-25T13:10:30;2.75;;;1.35;;
24901;SDS011;31328;51.402;0.016;2023-04-25T13:12:56;4.35;;;1.58;;
24901;SDS011;31328;51.402;0.016;2023-04-25T13:15:23;2.83;;;1.40;;
24901;SDS011;31328;51.402;0.016;2023-04-25T13:17:49;3.05;;;1.35;;
24901;SDS011;31328;51.402;0.016;2023-04-25T13:20:15;3.03;;;1.58;;
24901;SDS011;31328;51.402;0.016;2023-04-25T13:22:42;2.85;;;1.35;;
24901;SDS011;31328;51.402;0.016;2023-04-25T13:25:11;5.65;;;1.63;;
24901;SDS011;31328;51.402;0.016;2023-04-25T13:27:37;2.13;;;1.30;;
24901;SDS011;31328;51.402;0.016;2023-04-25T13:30:06;2.00;;;1.10;;
24901;SDS011;31328;51.402;0.016;2023-04-25T13:32:36;2.97;;;1.63;;
24901;SDS011;31328;51.402;0.016;2023-04-25T13:35:03;3.67;;;1.40;;
24901;SDS011;31328;51.402;0.016;2023-04-25T13:37:31;2.70;;;1.58;;
24901;SDS011;31328;51.402;0.016;2023-04-25T13:39:59;4.80;;;1.50;;
24901;SDS011;31328;51.402;0.016;2023-04-25T13:42:26;3.53;;;1.38;;
24901;SDS011;31328;51.402;0.016;2023-04-25T13:44:52;2.88;;;1.58;;
24901;SDS011;31328;51.402;0.016;2023-04-25T13:47:18;3.35;;;1.42;;
24901;SDS011;31328;51.402;0.016;2023-04-25T13:49:45;3.90;;;1.45;;
24901;SDS011;31328;51.402;0.016;2023-04-25T13:52:11;4.75;;;1.75;;
24901;SDS011;31328;51.402;0.016;2023-04-25T13:54:37;4.25;;;1.52;;
24901;SDS011;31328;51.402;0.016;2023-04-25T13:57:04;5.25;;;2.10;;
24901;SDS011;31328;51.402;0.016;2023-04-25T13:59:31;4.47;;;1.70;;
24901;SDS011;31328;51.402;0.016;2023-04-25T14:01:57;4.30;;;1.58;;
24901;SDS011;31328;51.402;0.016;2023-04-25T14:04:24;4.57;;;1.83;;
24901;SDS011;31328;51.402;0.016;2023-04-25T14:06:50;7.43;;;1.80;;
24901;SDS011;31328;51.402;0.016;2023-04-25T14:09:17;4.40;;;1.48;;
24901;SDS011;31328;51.402;0.016;2023-04-25T14:11:45;6.28;;;1.55;;
24901;SDS011;31328;51.402;0.016;2023-04-25T14:14:11;5.03;;;1.90;;
24901;SDS011;31328;51.402;0.016;2023-04-25T14:16:39;3.83;;;1.70;;
24901;SDS011;31328;51.402;0.016;2023-04-25T14:19:05;5.45;;;2.15;;
24901;SDS011;31328;51.402;0.016;2023-04-25T14:21:31;4.37;;;1.50;;
24901;SDS011;31328;51.402;0.016;2023-04-25T14:23:58;4.38;;;1.80;;
24901;SDS011;31328;51.402;0.016;2023-04-25T14:26:24;2.55;;;1.42;;
24901;SDS011;31328;51.402;0.016;2023-04-25T14:28:51;2.10;;;1.30;;
24901;SDS011;31328;51.402;0.016;2023-04-25T14:31:17;3.10;;;1.40;;
24901;SDS011;31328;51.402;0.016;2023-04-25T14:33:44;8.15;;;2.95;;
24901;SDS011;31328;51.402;0.016;2023-04-25T14:36:11;3.85;;;1.30;;
24901;SDS011;31328;51.402;0.016;2023-04-25T14:38:37;2.03;;;1.35;;
24901;SDS011;31328;51.402;0.016;2023-04-25T14:41:03;6.65;;;1.88;;
24901;SDS011;31328;51.402;0.016;2023-04-25T14:43:30;3.63;;;1.35;;
24901;SDS011;31328;51.402;0.016;2023-04-25T14:45:56;3.25;;;1.83;;
24901;SDS011;31328;51.402;0.016;2023-04-25T14:48:22;3.30;;;2.10;;
24901;SDS011;31328;51.402;0.016;2023-04-25T14:50:49;3.28;;;1.77;;
24901;SDS011;31328;51.402;0.016;2023-04-25T14:53:15;3.15;;;1.70;;
24901;SDS011;31328;51.402;0.016;2023-04-25T14:55:42;4.97;;;2.03;;
24901;SDS011;31328;51.402;0.016;2023-04-25T14:58:08;3.90;;;2.53;;
24901;SDS011;31328;51.402;0.016;2023-04-25T15:00:35;4.25;;;2.05;;
24901;SDS011;31328;51.402;0.016;2023-04-25T15:03:01;3.77;;;1.83;;
24901;SDS011;31328;51.402;0.016;2023-04-25T15:05:28;6.23;;;1.77;;